Time;durP1;ratioP1;P1;durP2;ratioP2;P2;SDS_P1;SDS_P2;PMS_P1;PMS_P2;Temp;Humidity;BMP_temperature;BMP_pressure;BME280_temperature;BME280_humidity;BME280_pressure;Samples;Min_cycle;Max_cycle;Signal;HPM_P1;HPM_P2
2022/10/03 00:02:39;;;;;;;0.00;0.00;;;;;;;17.68;58.48;101909.97;7247426;19;2004560;-58
2022/10/03 00:05:43;;;;;;;0.00;0.00;;;;;;;17.67;58.79;101913.53;7360622;19;20009;-60
2022/10/03 00:08:18;;;;;;;0.00;0.00;;;;;;;17.64;59.19;101903.09;7252412;19;2004149;-59
2022/10/03 00:10:59;;;;;;;0.00;0.00;;;;;;;17.63;58.90;101906.63;7360611;19;20045;-58
2022/10/03 00:13:49;;;;;;;0.00;0.00;;;;;;;17.62;58.69;101912.81;7355957;19;20786;-59
2022/10/03 00:16:21;;;;;;;0.00;0.00;;;;;;;17.59;58.94;101910.31;7358427;19;20006;-60
2022/10/03 00:19:05;;;;;;;0.00;0.00;;;;;;;17.58;58.46;101913.84;7358595;19;20873;-59
2022/10/03 00:21:49;;;;;;;0.05;0.05;;;;;;;17.56;58.96;101910.38;7358644;19;20360;-59
2022/10/03 00:24:33;;;;;;;0.00;0.00;;;;;;;17.56;58.89;101910.38;7358175;19;20006;-59
2022/10/03 00:27:07;;;;;;;0.00;0.00;;;;;;;17.53;59.01;101910.47;7358504;19;20006;-59
2022/10/03 00:29:32;;;;;;;0.00;0.00;;;;;;;17.49;58.19;101916.78;7358089;19;20002;-60
2022/10/03 00:32:16;;;;;;;0.00;0.00;;;;;;;17.51;58.24;101920.25;7356851;19;20071;-60
2022/10/03 00:35:11;;;;;;;0.05;0.05;;;;;;;17.48;57.96;101915.03;7358257;19;20010;-59
2022/10/03 00:38:02;;;;;;;0.00;0.00;;;;;;;17.43;58.04;101911.69;7257592;19;2004513;-59
2022/10/03 00:40:55;;;;;;;0.00;0.00;;;;;;;17.44;58.11;101913.44;7257495;19;2004773;-60
2022/10/03 00:43:40;;;;;;;0.00;0.00;;;;;;;17.37;58.97;101921.53;7254086;19;2004405;-59
2022/10/03 00:46:17;;;;;;;0.03;0.03;;;;;;;17.34;58.71;101910.22;7357245;19;20023;-58
2022/10/03 00:48:48;;;;;;;0.03;0.03;;;;;;;17.40;58.48;101914.44;7356071;19;20734;-59
2022/10/03 00:51:51;;;;;;;0.00;0.00;;;;;;;17.41;58.42;101910.88;7358561;19;20367;-59
2022/10/03 00:54:55;;;;;;;0.00;0.00;;;;;;;17.38;58.63;101912.69;7256867;19;2004261;-59
2022/10/03 00:57:27;;;;;;;0.00;0.00;;;;;;;17.40;58.72;101917.09;7256049;19;2004119;-60
2022/10/03 01:00:25;;;;;;;0.00;0.00;;;;;;;17.40;58.67;101917.09;7357977;19;20023;-59
2022/10/03 01:02:51;;;;;;;0.00;0.00;;;;;;;17.34;58.72;101913.72;7256411;19;2004694;-59
2022/10/03 01:05:22;;;;;;;0.00;0.00;;;;;;;17.34;58.79;101916.38;7356938;19;20341;-59
2022/10/03 01:08:16;;;;;;;0.00;0.00;;;;;;;17.36;58.22;101914.53;7357068;19;20010;-58
2022/10/03 01:11:06;;;;;;;0.00;0.00;;;;;;;17.35;58.60;101906.66;7356237;19;20013;-59
2022/10/03 01:14:00;;;;;;;0.00;0.00;;;;;;;17.35;58.53;101907.53;7355293;19;19998;-60
2022/10/03 01:16:53;;;;;;;0.00;0.00;;;;;;;17.35;58.70;101907.53;7255404;19;2004326;-59
2022/10/03 01:19:31;;;;;;;0.00;0.00;;;;;;;17.32;58.30;101902.31;7256538;19;2004511;-60
2022/10/03 01:22:18;;;;;;;0.00;0.00;;;;;;;17.32;58.43;101899.69;7357656;19;20632;-58
2022/10/03 01:24:53;;;;;;;0.00;0.00;;;;;;;17.26;58.53;101897.25;7355598;19;20006;-59
2022/10/03 01:30:53;;;;;;;0.00;0.00;;;;;;;17.25;58.39;101905.22;7154581;19;2004389;-59
2022/10/03 01:33:47;;;;;;;0.00;0.00;;;;;;;17.24;58.19;101903.50;7355065;19;20437;-59
2022/10/03 01:36:34;;;;;;;0.00;0.00;;;;;;;17.22;58.11;101911.44;7253367;19;2004518;-60
2022/10/03 01:39:08;;;;;;;0.00;0.00;;;;;;;17.18;58.19;101903.66;7360092;19;20656;-59
2022/10/03 01:42:23;;;;;;;0.00;0.00;;;;;;;17.18;57.87;101907.16;7364219;19;20025;-59
2022/10/03 01:45:06;;;;;;;0.00;0.00;;;;;;;17.14;57.49;101902.91;7258689;19;2004307;-59
2022/10/03 01:47:37;;;;;;;0.00;0.00;;;;;;;17.10;57.79;101896.00;7364554;19;20089;-59
2022/10/03 01:50:14;;;;;;;0.00;0.00;;;;;;;17.07;57.91;101890.81;7360169;19;20010;-59
2022/10/03 01:52:43;;;;;;;;;;;;;;;17.06;57.53;101878.53;7364147;19;20023;-58
2022/10/03 01:55:43;;;;;;;0.10;0.10;;;;;;;17.04;57.50;101893.56;7363223;19;19923;-59
2022/10/03 01:58:26;;;;;;;0.00;0.00;;;;;;;17.01;57.29;101888.38;7249880;19;2004377;-59
2022/10/03 02:01:22;;;;;;;0.00;0.00;;;;;;;16.97;57.74;101878.81;7365154;19;20017;-59
2022/10/03 02:04:03;;;;;;;0.00;0.00;;;;;;;16.93;58.01;101893.88;7262808;19;2004486;-60
2022/10/03 02:06:42;;;;;;;0.00;0.00;;;;;;;16.93;58.18;101893.00;7361630;19;20010;-59
2022/10/03 02:09:14;;;;;;;0.00;0.00;;;;;;;16.92;57.97;101888.63;7367142;19;20017;-59
2022/10/03 02:11:43;;;;;;;0.00;0.00;;;;;;;16.90;57.07;101890.47;7365869;19;20010;-56
2022/10/03 02:14:37;;;;;;;0.00;0.00;;;;;;;16.88;57.32;101887.00;7365839;19;20002;-58
2022/10/03 02:17:18;;;;;;;0.00;0.00;;;;;;;16.85;57.73;101891.47;7265812;19;2004384;-60
2022/10/03 02:20:03;;;;;;;0.00;0.00;;;;;;;16.83;57.48;101876.59;7362770;19;20010;-59
2022/10/03 02:22:36;;;;;;;0.00;0.00;;;;;;;16.80;57.29;101871.41;7366007;19;20030;-58
2022/10/03 02:25:34;;;;;;;0.00;0.00;;;;;;;16.81;57.38;101868.72;7365780;19;20007;-60
2022/10/03 02:28:05;;;;;;;0.00;0.00;;;;;;;16.76;57.20;101860.06;7260956;19;2004476;-59
2022/10/03 02:30:46;;;;;;;0.00;0.00;;;;;;;16.77;56.98;101856.53;7366280;19;20010;-58
2022/10/03 02:33:17;;;;;;;0.00;0.00;;;;;;;16.76;57.03;101852.16;7365899;19;20010;-59
2022/10/03 02:35:58;;;;;;;0.10;0.10;;;;;;;16.77;57.50;101856.53;7363317;19;20011;-59
2022/10/03 02:38:44;;;;;;;0.00;0.00;;;;;;;16.77;57.43;101856.53;7367162;19;20006;-60
2022/10/03 02:41:10;;;;;;;0.00;0.00;;;;;;;16.72;57.07;101853.16;7364881;19;20018;-59
2022/10/03 02:43:57;;;;;;;0.00;0.00;;;;;;;16.76;57.36;101848.66;7365635;19;25511;-60
2022/10/03 02:46:41;;;;;;;;;;;;;;;16.76;56.75;101849.53;7264227;19;2004585;-59
2022/10/03 02:49:44;;;;;;;0.00;0.00;;;;;;;16.75;57.29;101847.81;7366315;19;19926;-60
2022/10/03 02:52:15;;;;;;;0.00;0.00;;;;;;;16.74;56.72;101851.34;7261555;19;2004478;-59
2022/10/03 02:55:18;;;;;;;0.00;0.00;;;;;;;16.74;56.89;101856.63;7364970;19;20015;-59
2022/10/03 02:58:21;;;;;;;0.00;0.00;;;;;;;16.73;57.13;101848.78;7262070;19;2004361;-60
2022/10/03 03:01:17;;;;;;;0.00;0.00;;;;;;;16.71;57.07;101851.44;7259944;19;2004138;-58
2022/10/03 03:04:11;;;;;;;0.00;0.00;;;;;;;16.69;57.49;101853.22;7260810;19;2004484;-59
2022/10/03 03:06:46;;;;;;;0.10;0.10;;;;;;;16.69;57.27;101847.97;7261214;19;2004463;-58
2022/10/03 03:09:39;;;;;;;0.00;0.00;;;;;;;16.71;57.38;101846.16;7363989;19;20011;-58
2022/10/03 03:12:34;;;;;;;0.08;0.08;;;;;;;16.73;57.90;101844.34;7262895;19;2004559;-59
2022/10/03 03:15:24;;;;;;;0.10;0.10;;;;;;;16.73;57.33;101843.50;7263720;19;2004361;-59
2022/10/03 03:18:23;;;;;;;0.10;0.10;;;;;;;16.73;56.56;101832.94;7363638;19;20014;-60
2022/10/03 03:21:12;;;;;;;0.08;0.08;;;;;;;16.70;56.76;101828.59;7255531;19;2004062;-57
2022/10/03 03:24:21;;;;;;;0.05;0.05;;;;;;;16.70;57.05;101827.72;7365660;19;20027;-59
2022/10/03 03:27:03;;;;;;;0.00;0.00;;;;;;;16.66;56.84;101821.66;7262332;19;2005217;-60
2022/10/03 03:29:47;;;;;;;0.00;0.00;;;;;;;16.65;57.01;101819.94;7366208;19;20473;-59
2022/10/03 03:32:26;;;;;;;0.10;0.10;;;;;;;16.61;56.71;101813.88;7363452;19;20018;-59
2022/10/03 03:35:08;;;;;;;0.00;0.00;;;;;;;16.61;56.52;101815.66;7365085;19;20376;-58
2022/10/03 03:38:01;;;;;;;0.00;0.00;;;;;;;16.62;56.63;101814.75;7364557;19;20007;-58
2022/10/03 03:40:45;;;;;;;0.00;0.00;;;;;;;16.60;56.74;101803.41;7264080;19;2004518;-59
2022/10/03 03:43:34;;;;;;;0.10;0.10;;;;;;;16.56;56.76;101799.13;7364850;19;20473;-59
2022/10/03 03:46:28;;;;;;;0.10;0.10;;;;;;;16.59;56.67;101799.91;7365671;19;20017;-59
2022/10/03 03:49:15;;;;;;;0.10;0.10;;;;;;;16.58;57.30;101786.75;7265187;19;2004599;-59
2022/10/03 03:52:18;;;;;;;0.10;0.10;;;;;;;16.59;56.89;101791.97;7264138;19;2004590;-59
2022/10/03 03:55:08;;;;;;;0.00;0.00;;;;;;;16.59;57.56;101788.50;7262577;19;2004284;-58
2022/10/03 03:57:45;;;;;;;0.00;0.00;;;;;;;16.57;57.75;101785.91;7364850;19;20381;-60
2022/10/03 04:00:15;;;;;;;;;;;;;;;16.59;56.90;101786.72;7367029;19;20017;-59
2022/10/03 04:03:08;;;;;;;0.08;0.08;;;;;;;16.57;57.85;101785.00;7361184;19;20796;-60
2022/10/03 04:06:05;;;;;;;0.08;0.08;;;;;;;16.56;58.30;101778.03;7263311;19;2004889;-60
2022/10/03 04:09:01;;;;;;;0.00;0.00;;;;;;;16.55;58.41;101771.03;7261054;19;2004453;-58
2022/10/03 04:12:06;;;;;;;0.00;0.00;;;;;;;16.51;58.02;101769.38;7261962;19;2004273;-59
2022/10/03 04:15:04;;;;;;;0.00;0.00;;;;;;;16.48;57.74;101770.34;7262631;19;2004514;-59
2022/10/03 04:20:38;;;;;;;0.00;0.00;;;;;;;16.41;58.07;101762.66;7263176;19;2004625;-60
2022/10/03 04:23:44;;;;;;;0.00;0.00;;;;;;;16.35;57.76;101754.03;7364412;19;20007;-60
2022/10/03 04:26:18;;;;;;;0.08;0.08;;;;;;;16.29;58.94;101746.31;7261019;19;2004305;-60
2022/10/03 04:28:58;;;;;;;0.00;0.00;;;;;;;16.25;58.76;101744.66;7364429;19;20011;-57
2022/10/03 04:31:44;;;;;;;0.00;0.00;;;;;;;16.23;58.13;101735.97;7363796;19;20007;-59
2022/10/03 04:34:21;;;;;;;0.00;0.00;;;;;;;16.20;59.22;101743.09;7362661;19;22057;-60
2022/10/03 04:37:00;;;;;;;0.10;0.10;;;;;;;16.17;58.61;101746.69;7363839;19;20006;-59
2022/10/03 04:39:33;;;;;;;0.00;0.00;;;;;;;16.15;59.30;101739.72;7364855;19;20094;-59
2022/10/03 04:42:25;;;;;;;0.00;0.00;;;;;;;16.14;58.92;101733.59;7363816;19;20002;-60
2022/10/03 04:45:09;;;;;;;0.00;0.00;;;;;;;16.13;59.05;101725.72;7260114;19;2004427;-60
2022/10/03 04:47:52;;;;;;;0.00;0.00;;;;;;;16.12;59.08;101724.88;7363702;19;20040;-59
2022/10/03 04:50:30;;;;;;;0.00;0.00;;;;;;;16.08;59.31;101713.56;7364666;19;21218;-59
2022/10/03 04:53:07;;;;;;;0.05;0.05;;;;;;;16.09;58.89;101719.69;7363824;19;20833;-60
2022/10/03 04:55:44;;;;;;;0.08;0.08;;;;;;;16.07;59.25;101710.97;7363126;19;20041;-60
2022/10/03 04:58:09;;;;;;;;;;;;;;;16.08;58.69;101710.06;7363697;19;20034;-59
2022/10/03 05:00:53;;;;;;;0.00;0.00;;;;;;;16.03;59.81;101710.19;7363799;19;19919;-60
2022/10/03 05:03:46;;;;;;;0.10;0.10;;;;;;;16.06;59.40;101714.50;7363142;19;20002;-59
2022/10/03 05:06:40;;;;;;;0.00;0.00;;;;;;;16.04;59.07;101725.09;7260767;19;2004173;-59
2022/10/03 05:09:43;;;;;;;0.00;0.00;;;;;;;16.03;59.66;101714.59;7262857;19;2004305;-60
2022/10/03 05:12:38;;;;;;;0.00;0.00;;;;;;;16.01;59.59;101709.34;7259745;19;2004284;-60
2022/10/03 05:15:13;;;;;;;0.00;0.00;;;;;;;15.99;60.30;101702.41;7266784;19;2004572;-59
2022/10/03 05:18:27;;;;;;;0.00;0.00;;;;;;;16.02;59.17;101697.06;7369760;19;20014;-60
2022/10/03 05:20:58;;;;;;;0.03;0.03;;;;;;;16.00;60.16;101698.88;7265930;19;2004357;-59
2022/10/03 05:24:05;;;;;;;0.05;0.05;;;;;;;16.01;59.18;101692.69;7368734;19;20006;-58
2022/10/03 05:27:02;;;;;;;0.00;0.00;;;;;;;16.01;59.38;101700.59;7265721;19;2004373;-60
2022/10/03 05:29:54;;;;;;;0.00;0.00;;;;;;;16.02;58.67;101697.06;7269166;19;2004811;-59
2022/10/03 05:32:33;;;;;;;0.00;0.00;;;;;;;15.96;59.18;101682.28;7266067;19;2004310;-56
2022/10/03 05:35:36;;;;;;;0.00;0.00;;;;;;;15.97;58.81;101689.31;7367214;19;19998;-59
2022/10/03 05:38:13;;;;;;;0.10;0.10;;;;;;;15.94;59.26;101693.78;7267136;19;2006370;-59
2022/10/03 05:40:58;;;;;;;0.00;0.00;;;;;;;15.83;59.32;101675.66;7369233;19;20002;-59
2022/10/03 05:43:35;;;;;;;0.10;0.10;;;;;;;15.93;59.55;101692.06;7367823;19;20015;-60
2022/10/03 05:46:32;;;;;;;0.00;0.00;;;;;;;15.89;59.15;101678.09;7366638;19;20007;-59
2022/10/03 05:49:15;;;;;;;0.00;0.00;;;;;;;15.92;59.52;101685.06;7266780;19;2004580;-59
2022/10/03 05:51:56;;;;;;;0.00;0.00;;;;;;;15.92;59.84;101690.34;7365751;19;20010;-58
2022/10/03 05:54:34;;;;;;;0.00;0.00;;;;;;;15.90;59.86;101687.72;7369925;19;20029;-58
2022/10/03 05:57:08;;;;;;;0.00;0.00;;;;;;;15.87;59.90;101682.56;7367164;19;20039;-59
2022/10/03 05:59:45;;;;;;;0.00;0.00;;;;;;;15.90;59.69;101687.72;7357790;19;20021;-59
2022/10/03 06:02:32;;;;;;;0.00;0.00;;;;;;;15.89;60.10;101682.53;7366733;19;20010;-58
2022/10/03 06:05:05;;;;;;;0.00;0.00;;;;;;;15.85;59.97;101679.09;7366724;19;20040;-59
2022/10/03 06:07:43;;;;;;;0.10;0.10;;;;;;;15.88;59.45;101683.44;7362311;19;20010;-59
2022/10/03 06:10:17;;;;;;;;;;;;;;;15.88;58.93;101672.91;7365470;19;20011;-60
2022/10/03 06:12:48;;;;;;;0.05;0.05;;;;;;;15.82;59.92;101674.81;7363045;19;19919;-59
2022/10/03 06:15:29;;;;;;;0.00;0.00;;;;;;;15.84;59.94;101672.13;7365010;19;20553;-59
2022/10/03 06:18:15;;;;;;;0.10;0.10;;;;;;;15.82;60.26;101669.53;7363345;19;20022;-60
2022/10/03 06:20:53;;;;;;;0.10;0.10;;;;;;;15.80;60.45;101671.31;7366385;19;20018;-59
2022/10/03 06:23:43;;;;;;;0.00;0.00;;;;;;;15.80;60.40;101676.59;7367537;19;20584;-59
2022/10/03 06:26:35;;;;;;;0.00;0.00;;;;;;;15.80;60.33;101681.88;7366491;19;20025;-59
2022/10/03 06:29:16;;;;;;;0.00;0.00;;;;;;;15.81;59.92;101677.47;7264234;19;2004589;-59
2022/10/03 06:31:56;;;;;;;0.10;0.10;;;;;;;15.81;60.33;101680.97;7366567;19;20403;-59
2022/10/03 06:34:40;;;;;;;0.05;0.05;;;;;;;15.79;61.28;101685.41;7368308;19;20266;-59
2022/10/03 06:37:36;;;;;;;0.00;0.00;;;;;;;15.81;60.51;101673.09;7365606;19;20070;-59
2022/10/03 06:40:20;;;;;;;0.00;0.00;;;;;;;15.84;60.42;101685.28;7266313;19;2004436;-59
2022/10/03 06:42:55;;;;;;;0.00;0.00;;;;;;;15.83;60.58;101683.56;7366309;19;20070;-60
2022/10/03 06:46:15;;;;;;;0.00;0.00;;;;;;;15.73;60.14;101659.25;7364040;19;20572;-59
2022/10/03 06:49:02;;;;;;;0.00;0.00;;;;;;;15.85;61.02;101683.50;7162475;19;2005217;-59
2022/10/03 06:51:27;;;;;;;;;;;;;;;15.87;59.50;101686.97;7367839;19;20033;-60
2022/10/03 06:54:17;;;;;;;0.00;0.00;;;;;;;15.87;60.04;101676.44;7350943;19;19919;-59
2022/10/03 06:57:06;;;;;;;0.00;0.00;;;;;;;15.85;60.44;101678.25;7266819;19;2004449;-59
2022/10/03 06:59:58;;;;;;;0.00;0.00;;;;;;;15.80;60.67;101671.31;7263944;19;2004315;-60
2022/10/03 07:02:27;;;;;;;0.00;0.00;;;;;;;15.81;61.33;101673.09;7246496;19;2004677;-59
2022/10/03 07:05:11;;;;;;;0.10;0.10;;;;;;;15.81;61.38;101678.34;7361945;19;20461;-58
2022/10/03 07:07:54;;;;;;;0.00;0.00;;;;;;;15.85;61.14;101672.97;7367388;19;20006;-59
2022/10/03 07:10:35;;;;;;;0.00;0.00;;;;;;;15.85;61.10;101667.69;7368386;19;20014;-59
2022/10/03 07:13:01;;;;;;;0.00;0.00;;;;;;;15.83;61.25;101665.13;7368891;19;20019;-58
2022/10/03 07:15:51;;;;;;;0.00;0.00;;;;;;;15.88;60.46;101667.63;7367660;19;20025;-60
2022/10/03 07:18:44;;;;;;;0.00;0.00;;;;;;;15.88;60.78;101662.34;7265068;19;2004424;-59
2022/10/03 07:21:24;;;;;;;0.00;0.00;;;;;;;15.87;61.47;101666.78;7262423;19;2004551;-59
2022/10/03 07:24:02;;;;;;;0.00;0.00;;;;;;;15.91;60.61;101668.38;7365797;19;20078;-58
2022/10/03 07:26:36;;;;;;;0.00;0.00;;;;;;;15.90;61.22;101671.94;7366956;19;20007;-60
2022/10/03 07:29:17;;;;;;;0.00;0.00;;;;;;;15.94;60.74;101670.06;7368351;19;20630;-59
2022/10/03 07:31:49;;;;;;;0.05;0.05;;;;;;;15.91;61.59;101672.78;7359605;19;20015;-58
2022/10/03 07:34:44;;;;;;;0.00;0.00;;;;;;;15.97;60.80;101675.28;7367241;19;20092;-59
2022/10/03 07:40:02;;;;;;;0.00;0.00;;;;;;;15.99;60.85;101683.97;7363341;19;20077;-59
2022/10/03 07:42:58;;;;;;;0.00;0.00;;;;;;;16.05;60.58;101686.41;7361742;19;20426;-59
2022/10/03 07:45:42;;;;;;;0.10;0.10;;;;;;;16.07;60.02;101684.63;7261148;19;2004520;-60
2022/10/03 07:48:41;;;;;;;0.00;0.00;;;;;;;16.11;59.99;101690.66;7364255;19;20003;-59
2022/10/03 07:51:13;;;;;;;0.10;0.10;;;;;;;16.12;60.06;101671.28;7256429;19;2004098;-58
2022/10/03 07:54:15;;;;;;;0.00;0.00;;;;;;;16.15;58.89;101677.34;7363848;19;20497;-60
2022/10/03 07:57:08;;;;;;;0.00;0.00;;;;;;;16.15;58.30;101674.69;7262337;19;2004335;-59
2022/10/03 07:59:40;;;;;;;0.00;0.00;;;;;;;16.13;58.64;101673.03;7262814;19;2004615;-59
2022/10/03 08:02:27;;;;;;;0.10;0.10;;;;;;;16.19;58.53;101673.69;7366207;19;20494;-59
2022/10/03 08:05:04;;;;;;;0.00;0.00;;;;;;;16.20;58.92;101671.94;7363873;19;20003;-60
2022/10/03 08:07:48;;;;;;;0.00;0.00;;;;;;;16.22;58.72;101662.19;7364587;19;20006;-59
2022/10/03 08:10:20;;;;;;;0.00;0.00;;;;;;;16.24;58.52;101671.78;7363169;19;20039;-59
2022/10/03 08:12:48;;;;;;;0.00;0.00;;;;;;;16.22;58.27;101668.34;7364873;19;20450;-59
2022/10/03 08:15:34;;;;;;;0.00;0.00;;;;;;;16.27;58.21;101666.44;7362898;19;20809;-59
2022/10/03 08:18:16;;;;;;;0.00;0.00;;;;;;;16.30;57.97;101671.59;7364518;19;20010;-59
2022/10/03 08:21:00;;;;;;;0.00;0.00;;;;;;;16.35;57.71;101674.94;7361295;19;20010;-59
2022/10/03 08:23:31;;;;;;;0.10;0.10;;;;;;;16.32;58.17;101667.16;7363547;19;20031;-58
2022/10/03 08:26:26;;;;;;;0.00;0.00;;;;;;;16.38;58.13;101668.72;7363175;19;20006;-59
2022/10/03 08:29:05;;;;;;;0.00;0.00;;;;;;;16.41;58.48;101670.41;7261540;19;2004387;-59
2022/10/03 08:32:04;;;;;;;0.00;0.00;;;;;;;16.44;58.08;101657.13;7362773;19;20014;-59
2022/10/03 08:34:32;;;;;;;0.00;0.00;;;;;;;16.39;58.40;101648.50;7262088;19;2003975;-59
2022/10/03 08:37:11;;;;;;;0.00;0.00;;;;;;;16.44;58.61;101651.84;7360075;19;20094;-60
2022/10/03 08:39:58;;;;;;;0.10;0.10;;;;;;;16.47;58.30;101651.72;7363051;19;20820;-59
2022/10/03 08:42:48;;;;;;;0.00;0.00;;;;;;;16.48;58.29;101642.94;7361639;19;20487;-58
2022/10/03 08:45:51;;;;;;;0.10;0.10;;;;;;;16.51;58.66;101642.81;7361567;19;20027;-59
2022/10/03 08:48:34;;;;;;;0.00;0.00;;;;;;;16.47;58.21;101635.91;7253200;19;2004156;-59
2022/10/03 08:51:18;;;;;;;0.10;0.10;;;;;;;16.49;58.61;101631.47;7351235;19;20002;-58
2022/10/03 08:53:47;;;;;;;0.00;0.00;;;;;;;16.51;58.76;101630.50;7353654;19;20985;-58
2022/10/03 08:56:31;;;;;;;0.10;0.10;;;;;;;16.54;58.37;101608.47;7352052;19;20014;-59
2022/10/03 08:59:19;;;;;;;0.00;0.00;;;;;;;16.62;58.41;101624.88;7354698;19;20014;-59
2022/10/03 09:02:15;;;;;;;0.00;0.00;;;;;;;16.64;58.56;101623.06;7353883;19;20020;-59
2022/10/03 09:05:18;;;;;;;0.00;0.00;;;;;;;16.66;58.63;101615.94;7252869;19;2004305;-58
2022/10/03 09:08:02;;;;;;;0.00;0.00;;;;;;;16.64;58.54;101609.88;7252431;19;2004480;-59
2022/10/03 09:10:36;;;;;;;0.00;0.00;;;;;;;16.72;58.44;101617.56;7352647;19;20002;-59
2022/10/03 09:13:05;;;;;;;0.00;0.00;;;;;;;16.69;58.97;101607.94;7352894;19;20028;-59
2022/10/03 09:15:54;;;;;;;0.00;0.00;;;;;;;16.77;58.65;101607.72;7350949;19;20033;-59
2022/10/03 09:18:48;;;;;;;0.00;0.00;;;;;;;16.80;58.32;101597.91;7352826;19;20025;-58
2022/10/03 09:21:58;;;;;;;0.00;0.00;;;;;;;16.84;58.39;101594.28;7251305;19;2004299;-59
2022/10/03 09:24:48;;;;;;;0.00;0.00;;;;;;;16.86;58.46;101584.50;7249294;19;2004532;-59
2022/10/03 09:27:21;;;;;;;0.00;0.00;;;;;;;16.86;58.66;101581.88;7351553;19;20346;-58
2022/10/03 09:30:21;;;;;;;0.00;0.00;;;;;;;16.94;58.21;101584.25;7351581;19;20041;-59
2022/10/03 09:32:56;;;;;;;0.00;0.00;;;;;;;16.93;58.90;101561.44;7250684;19;2004334;-59
2022/10/03 09:35:57;;;;;;;0.00;0.00;;;;;;;16.96;58.80;101563.09;7351011;19;20010;-59
2022/10/03 09:38:44;;;;;;;0.00;0.00;;;;;;;16.97;58.86;101567.44;7248543;19;2004675;-59
2022/10/03 09:41:31;;;;;;;0.00;0.00;;;;;;;17.00;58.77;101551.50;7351792;19;20654;-58
2022/10/03 09:44:15;;;;;;;0.00;0.00;;;;;;;16.99;58.90;101552.44;7352126;19;20013;-59
2022/10/03 09:47:22;;;;;;;0.00;0.00;;;;;;;17.05;58.79;101552.22;7354402;19;20011;-59
2022/10/03 09:49:47;;;;;;;;;;;;;;;17.12;58.30;101545.78;7251928;19;2004517;-59
2022/10/03 09:52:40;;;;;;;0.10;0.10;;;;;;;17.13;58.75;101536.94;7355073;19;19930;-59
2022/10/03 09:55:29;;;;;;;0.00;0.00;;;;;;;17.16;58.69;101528.06;7251022;19;2004516;-59
2022/10/03 09:57:55;;;;;;;0.10;0.10;;;;;;;17.11;58.33;101529.09;7247810;19;2004259;-57
2022/10/03 10:00:48;;;;;;;0.00;0.00;;;;;;;17.12;58.35;101514.97;7354846;19;20006;-59
2022/10/03 10:03:33;;;;;;;0.00;0.00;;;;;;;17.20;57.73;101522.63;7257096;19;2004493;-58
2022/10/03 10:06:19;;;;;;;0.10;0.10;;;;;;;17.21;58.13;101524.34;7357476;19;20046;-59
2022/10/03 10:08:47;;;;;;;0.00;0.00;;;;;;;17.15;58.06;101519.28;7358722;19;20015;-59
2022/10/03 10:11:34;;;;;;;0.08;0.08;;;;;;;17.19;58.21;101507.72;7357050;19;20023;-59
2022/10/03 10:14:21;;;;;;;0.05;0.05;;;;;;;17.18;58.35;101513.03;7357732;19;20021;-59
2022/10/03 10:17:20;;;;;;;0.00;0.00;;;;;;;17.18;58.05;101508.59;7356790;19;20851;-59
2022/10/03 10:19:54;;;;;;;0.00;0.00;;;;;;;17.21;58.84;101512.91;7256002;19;2004205;-59
2022/10/03 10:22:47;;;;;;;0.00;0.00;;;;;;;17.22;58.23;101506.72;7356926;19;20817;-59
2022/10/03 10:25:27;;;;;;;0.10;0.10;;;;;;;17.19;58.73;101505.06;7360600;19;20034;-59
2022/10/03 10:27:56;;;;;;;0.00;0.00;;;;;;;17.24;59.00;101500.47;7362002;19;20006;-60
2022/10/03 10:30:56;;;;;;;0.10;0.10;;;;;;;17.22;58.74;101482.97;7361645;19;20675;-59
2022/10/03 10:33:59;;;;;;;0.00;0.00;;;;;;;17.31;58.46;101494.03;7258245;19;2004527;-59
2022/10/03 10:36:46;;;;;;;0.00;0.00;;;;;;;17.34;59.05;101498.34;7254605;19;2004227;-59
2022/10/03 10:39:47;;;;;;;0.05;0.05;;;;;;;17.34;59.05;101504.50;7360619;19;20018;-59
2022/10/03 10:42:15;;;;;;;0.00;0.00;;;;;;;17.35;59.37;101500.06;7257382;19;2004502;-59
2022/10/03 10:44:41;;;;;;;0.00;0.00;;;;;;;17.34;58.87;101496.56;7361993;19;20025;-59
2022/10/03 10:47:32;;;;;;;0.10;0.10;;;;;;;17.41;58.98;101489.25;7359980;19;20015;-59
2022/10/03 10:50:29;;;;;;;0.10;0.10;;;;;;;17.45;58.27;101476.81;7257344;19;2004348;-59
2022/10/03 10:53:36;;;;;;;0.10;0.10;;;;;;;17.47;58.63;101473.19;7258561;19;2004309;-58
2022/10/03 10:56:23;;;;;;;0.00;0.00;;;;;;;17.50;58.56;101461.66;7258482;19;2004372;-59
2022/10/03 10:59:26;;;;;;;0.10;0.10;;;;;;;17.54;58.75;101455.34;7360231;19;20003;-59
2022/10/03 11:02:19;;;;;;;0.08;0.08;;;;;;;17.59;59.02;101461.28;7249839;19;2004498;-58
2022/10/03 11:05:19;;;;;;;0.00;0.00;;;;;;;17.68;58.70;101455.63;7259792;19;2004450;-59
2022/10/03 11:07:57;;;;;;;0.00;0.00;;;;;;;17.76;59.10;101458.00;7253425;19;2004518;-58
2022/10/03 11:10:29;;;;;;;;;;;;;;;17.87;58.83;101448.69;7356430;19;20003;-59
2022/10/03 11:13:32;;;;;;;0.00;0.00;;;;;;;17.98;58.79;101452.69;7355883;19;19938;-59
2022/10/03 11:16:13;;;;;;;0.10;0.10;;;;;;;18.07;59.01;101433.81;7255887;19;2004186;-58
2022/10/03 11:19:10;;;;;;;0.00;0.00;;;;;;;18.16;58.68;101428.13;7360161;19;20051;-59
2022/10/03 11:21:58;;;;;;;0.00;0.00;;;;;;;18.27;58.21;101412.66;7255814;19;2004306;-58
2022/10/03 11:24:58;;;;;;;0.08;0.08;;;;;;;18.41;58.42;101407.63;7358677;19;20958;-59
2022/10/03 11:27:46;;;;;;;0.00;0.00;;;;;;;18.51;58.04;101407.22;7255411;19;2004012;-59
2022/10/03 11:30:48;;;;;;;0.00;0.00;;;;;;;18.61;57.79;101408.53;7357413;19;20014;-60
2022/10/03 11:33:54;;;;;;;0.10;0.10;;;;;;;18.71;57.93;101423.09;7257199;19;2004215;-59
2022/10/03 11:36:48;;;;;;;0.00;0.00;;;;;;;18.81;57.58;101408.53;7255923;19;2004250;-58
2022/10/03 11:39:41;;;;;;;0.00;0.00;;;;;;;18.87;56.64;101395.00;7255524;19;2004454;-59
2022/10/03 11:42:13;;;;;;;0.00;0.00;;;;;;;18.92;56.27;101390.38;7256283;19;2004300;-59
2022/10/03 11:45:01;;;;;;;0.10;0.10;;;;;;;19.00;56.74;101386.50;7359465;19;20006;-59
2022/10/03 11:48:11;;;;;;;0.00;0.00;;;;;;;19.04;56.30;101390.72;7357461;19;20028;-59
2022/10/03 11:51:04;;;;;;;0.10;0.10;;;;;;;19.00;56.15;101373.25;7252760;19;2004377;-60
2022/10/03 11:53:32;;;;;;;0.10;0.10;;;;;;;19.12;56.37;101386.78;7353577;19;20014;-60
2022/10/03 11:56:21;;;;;;;0.00;0.00;;;;;;;19.19;56.57;101382.03;7355879;19;20011;-59
2022/10/03 11:59:38;;;;;;;0.10;0.10;;;;;;;19.22;56.37;101376.63;7354894;19;20737;-59
2022/10/03 12:02:28;;;;;;;0.00;0.00;;;;;;;19.33;55.57;101392.84;7250336;19;2004442;-58
2022/10/03 12:05:46;;;;;;;0.08;0.08;;;;;;;19.36;56.05;101387.41;7254702;19;2004305;-59
2022/10/03 12:11:34;;;;;;;0.03;0.03;;;;;;;19.44;55.61;101371.97;7248002;19;2004665;-59
2022/10/03 12:14:08;;;;;;;0.08;0.08;;;;;;;19.47;55.33;101364.84;7247854;19;2004182;-59
2022/10/03 12:17:02;;;;;;;0.10;0.10;;;;;;;19.52;55.74;101362.81;7348375;19;20003;-60
2022/10/03 12:19:37;;;;;;;0.00;0.00;;;;;;;19.45;55.74;101346.34;7251935;19;2004565;-59
2022/10/03 12:22:21;;;;;;;0.10;0.10;;;;;;;19.54;55.65;101350.34;7349108;19;20006;-59
2022/10/03 12:24:48;;;;;;;0.00;0.00;;;;;;;19.62;55.83;101348.22;7352497;19;20006;-59
2022/10/03 12:27:35;;;;;;;0.10;0.10;;;;;;;19.73;55.72;101351.16;7352800;19;20118;-57
2022/10/03 12:30:12;;;;;;;0.10;0.10;;;;;;;19.82;55.54;101344.53;7349462;19;20045;-59
2022/10/03 12:32:57;;;;;;;0.10;0.10;;;;;;;19.96;55.52;101345.53;7352852;19;20006;-59
2022/10/03 12:35:38;;;;;;;0.00;0.00;;;;;;;20.07;54.93;101333.50;7352388;19;20852;-59
2022/10/03 12:38:20;;;;;;;0.10;0.10;;;;;;;20.23;55.11;101329.16;7353398;19;20006;-59
2022/10/03 12:41:02;;;;;;;0.10;0.10;;;;;;;20.42;55.30;101329.84;7352259;19;20677;-59
2022/10/03 12:43:45;;;;;;;0.00;0.00;;;;;;;20.64;55.00;101328.75;7352945;19;20553;-58
2022/10/03 12:46:22;;;;;;;0.00;0.00;;;;;;;20.78;54.46;101315.53;7351132;19;20010;-59
2022/10/03 12:48:54;;;;;;;0.00;0.00;;;;;;;20.94;53.94;101312.91;7352099;19;20086;-59
2022/10/03 12:51:35;;;;;;;0.00;0.00;;;;;;;21.17;53.78;101312.44;7351350;19;20006;-59
2022/10/03 12:54:28;;;;;;;0.00;0.00;;;;;;;21.37;53.08;101321.97;7351347;19;20010;-59
2022/10/03 12:57:26;;;;;;;0.00;0.00;;;;;;;21.58;53.69;101301.25;7249854;19;2004406;-59
2022/10/03 13:00:27;;;;;;;0.00;0.00;;;;;;;21.82;53.79;101293.59;7247120;19;2004199;-59